createdAt,value
2018-02-21T00:00:54.605Z,90.10
2018-02-21T00:03:23.116Z,91.10
2018-02-21T00:05:50.792Z,91.30
2018-02-21T00:08:18.761Z,91.10
2018-02-21T00:10:46.376Z,90.80
2018-02-21T00:13:14.063Z,91.50
2018-02-21T00:15:41.696Z,90.00
2018-02-21T00:23:17.223Z,89.50
2018-02-21T00:25:44.917Z,89.40
2018-02-21T00:28:12.534Z,88.20
2018-02-21T00:30:40.165Z,87.80
2018-02-21T00:33:08.515Z,88.50
2018-02-21T00:35:36.139Z,88.30
2018-02-21T00:38:03.775Z,88.90
2018-02-21T00:40:31.454Z,90.00
2018-02-21T00:42:59.099Z,89.10
2018-02-21T00:45:26.701Z,89.10
2018-02-21T00:47:54.377Z,89.20
2018-02-21T00:50:22.008Z,89.30
2018-02-21T00:52:49.638Z,87.50
2018-02-21T00:55:17.312Z,86.40
2018-02-21T01:00:12.558Z,88.90
2018-02-21T01:02:40.246Z,88.20
2018-02-21T01:07:35.504Z,90.20
2018-02-21T01:10:03.209Z,88.80
2018-02-21T01:12:31.296Z,90.00
2018-02-21T01:17:27.075Z,91.00
2018-02-21T01:19:54.699Z,91.50
2018-02-21T01:22:22.333Z,91.20
2018-02-21T01:24:50.012Z,90.00
2018-02-21T01:27:17.889Z,90.00
2018-02-21T01:29:45.514Z,89.00
2018-02-21T01:32:13.199Z,88.60
2018-02-21T01:34:40.826Z,89.30
2018-02-21T01:37:08.439Z,90.20
2018-02-21T01:39:36.118Z,90.20
2018-02-21T01:42:03.746Z,90.20
2018-02-21T01:44:31.379Z,89.90
2018-02-21T01:49:38.194Z,90.10
2018-02-21T01:54:33.492Z,90.50
2018-02-21T01:57:01.111Z,90.90
2018-02-21T01:59:28.796Z,91.50
2018-02-21T02:01:56.422Z,91.90
2018-02-21T02:04:24.048Z,91.90
2018-02-21T02:06:51.752Z,91.50
2018-02-21T02:09:19.376Z,91.70
2018-02-21T02:11:47.159Z,92.10
2018-02-21T02:14:14.847Z,91.60
2018-02-21T02:16:46.658Z,90.80
2018-02-21T02:19:14.338Z,90.70
2018-02-21T02:21:41.965Z,90.10
2018-02-21T02:24:09.604Z,90.00
2018-02-21T02:26:37.610Z,90.60
2018-02-21T02:29:05.239Z,90.90
2018-02-21T02:31:32.864Z,90.30
2018-02-21T02:34:00.541Z,91.10
2018-02-21T02:36:28.157Z,91.00
2018-02-21T02:39:07.621Z,90.40
2018-02-21T02:41:35.248Z,90.30
2018-02-21T02:44:02.876Z,90.30
2018-02-21T02:46:30.588Z,90.20
2018-02-21T02:48:58.219Z,91.10
2018-02-21T02:51:25.847Z,92.10
2018-02-21T02:53:53.530Z,91.70
2018-02-21T02:56:21.155Z,90.90
2018-02-21T02:58:48.797Z,90.50
2018-02-21T03:01:16.478Z,90.40
2018-02-21T03:03:44.112Z,90.20
2018-02-21T03:06:11.751Z,89.80
2018-02-21T03:08:39.442Z,90.00
2018-02-21T03:13:46.213Z,90.90
2018-02-21T03:16:15.578Z,90.70
2018-02-21T03:18:43.524Z,90.30
2018-02-21T03:21:12.437Z,89.80
2018-02-21T03:23:39.984Z,89.30
2018-02-21T03:26:08.125Z,89.60
2018-02-21T03:28:35.815Z,90.70
2018-02-21T03:31:04.019Z,90.70
2018-02-21T03:33:31.639Z,90.30
2018-02-21T03:35:59.324Z,91.00
2018-02-21T03:40:54.606Z,91.10
2018-02-21T03:43:22.292Z,92.10
2018-02-21T03:45:49.928Z,91.80
2018-02-21T03:48:17.559Z,91.70
2018-02-21T03:50:45.237Z,91.20
2018-02-21T03:53:12.861Z,91.00
2018-02-21T03:55:40.497Z,90.90
2018-02-21T03:58:08.180Z,90.90
2018-02-21T04:00:35.816Z,90.40
2018-02-21T04:03:03.447Z,90.10
2018-02-21T04:05:31.145Z,90.50
2018-02-21T04:07:58.771Z,90.30
2018-02-21T04:10:26.393Z,90.20
2018-02-21T04:12:54.076Z,90.00
2018-02-21T04:15:21.713Z,89.40
2018-02-21T04:17:49.336Z,89.00
2018-02-21T04:20:17.016Z,88.70
2018-02-21T04:22:44.641Z,89.00
2018-02-21T04:25:12.326Z,88.60
2018-02-21T04:27:39.969Z,87.50
2018-02-21T04:35:23.412Z,89.50
2018-02-21T04:37:52.694Z,88.50
2018-02-21T04:40:20.326Z,88.80
2018-02-21T04:42:47.969Z,89.10
2018-02-21T04:47:43.300Z,88.10
2018-02-21T04:50:10.925Z,88.30
2018-02-21T04:52:38.603Z,88.80
2018-02-21T04:55:11.944Z,89.30
2018-02-21T04:57:45.289Z,90.10
2018-02-21T05:00:12.909Z,89.60
2018-02-21T05:02:40.976Z,89.00
2018-02-21T05:05:08.656Z,90.30
2018-02-21T05:07:36.290Z,90.60
2018-02-21T05:10:03.915Z,90.40
2018-02-21T05:12:31.593Z,89.80
2018-02-21T05:14:59.268Z,89.90
2018-02-21T05:19:58.685Z,90.40
2018-02-21T05:22:26.312Z,90.30
2018-02-21T05:27:21.636Z,91.60
2018-02-21T05:29:49.302Z,91.90
2018-02-21T05:34:44.614Z,91.40
2018-02-21T05:37:12.247Z,91.60
2018-02-21T05:39:39.884Z,91.80
2018-02-21T05:44:48.694Z,91.60
2018-02-21T05:47:16.389Z,91.50
2018-02-21T05:49:44.010Z,91.10
2018-02-21T05:52:11.636Z,90.40
2018-02-21T05:54:39.328Z,90.70
2018-02-21T05:57:06.965Z,90.60
2018-02-21T05:59:37.658Z,90.10
2018-02-21T06:02:05.631Z,90.20
2018-02-21T06:04:32.966Z,90.50
2018-02-21T06:07:00.593Z,90.80
2018-02-21T06:09:28.393Z,90.80
2018-02-21T06:11:56.033Z,90.40
2018-02-21T06:14:23.684Z,90.30
2018-02-21T06:16:51.383Z,90.40
2018-02-21T06:19:21.071Z,90.30
2018-02-21T06:21:48.703Z,90.40
2018-02-21T06:24:16.381Z,89.90
2018-02-21T06:26:44.010Z,89.70
2018-02-21T06:29:11.638Z,90.20
2018-02-21T06:31:39.340Z,91.10
2018-02-21T06:36:34.596Z,90.80
2018-02-21T06:39:03.709Z,90.80
2018-02-21T06:41:31.335Z,90.70
2018-02-21T06:44:01.142Z,91.30
2018-02-21T06:46:28.835Z,92.40
2018-02-21T06:48:56.840Z,92.40
2018-02-21T06:51:24.337Z,92.20
2018-02-21T06:56:31.233Z,93.20
2018-02-21T06:58:58.048Z,93.40
2018-02-21T07:01:25.670Z,92.80
2018-02-21T07:03:53.302Z,92.60
2018-02-21T07:06:20.974Z,92.10
2018-02-21T07:08:48.603Z,92.40
2018-02-21T07:11:16.697Z,93.00
2018-02-21T07:13:44.395Z,94.10
2018-02-21T07:16:12.037Z,95.30
2018-02-21T07:18:39.656Z,95.70
2018-02-21T07:21:07.386Z,95.60
2018-02-21T07:23:35.008Z,96.00
2018-02-21T07:26:02.642Z,95.30
2018-02-21T07:28:30.329Z,94.20
2018-02-21T07:30:58.016Z,93.30
2018-02-21T07:33:25.586Z,93.00
2018-02-21T07:35:53.275Z,92.80
2018-02-21T07:38:21.400Z,92.80
2018-02-21T07:40:49.032Z,92.70
2018-02-21T07:43:16.745Z,93.90
2018-02-21T07:48:11.994Z,94.60
2018-02-21T07:50:39.686Z,94.40
2018-02-21T07:53:07.305Z,93.90
2018-02-21T07:55:34.934Z,94.30
2018-02-21T07:58:04.521Z,94.60
2018-02-21T08:00:30.239Z,94.60
2018-02-21T08:02:57.897Z,94.60
2018-02-21T08:05:25.575Z,93.80
2018-02-21T08:07:53.210Z,92.70
2018-02-21T08:10:24.260Z,91.60
2018-02-21T08:12:51.940Z,89.70
2018-02-21T08:17:47.195Z,90.40
2018-02-21T08:22:53.960Z,89.30
2018-02-21T08:25:21.650Z,91.20
2018-02-21T08:27:49.270Z,90.60
2018-02-21T08:30:16.896Z,90.50
2018-02-21T08:35:15.371Z,90.20
2018-02-21T08:37:43.006Z,88.80
2018-02-21T08:42:42.397Z,86.40
2018-02-21T08:45:10.474Z,86.60
2018-02-21T08:47:37.960Z,86.30
2018-02-21T08:50:05.586Z,85.80
2018-02-21T08:52:33.209Z,87.00
2018-02-21T08:55:00.880Z,83.80
2018-02-21T08:57:28.509Z,81.10
2018-02-21T08:59:56.135Z,81.40
2018-02-21T09:04:52.610Z,81.40
2018-02-21T09:07:20.261Z,84.30
2018-02-21T09:09:47.952Z,84.50
2018-02-21T09:12:15.578Z,83.70
2018-02-21T09:17:10.903Z,80.50
2018-02-21T09:19:38.533Z,83.90
2018-02-21T09:22:06.161Z,84.60
2018-02-21T09:24:33.833Z,79.00
2018-02-21T09:27:01.463Z,76.90
2018-02-21T09:29:29.087Z,77.70
2018-02-21T09:31:56.773Z,79.30
2018-02-21T09:34:24.398Z,79.40
2018-02-21T09:36:52.980Z,84.60
2018-02-21T09:39:20.664Z,78.70
2018-02-21T09:41:48.298Z,78.60
2018-02-21T09:44:15.918Z,78.90
2018-02-21T09:49:22.703Z,78.00
2018-02-21T09:51:50.394Z,78.10
2018-02-21T09:54:18.012Z,76.60
2018-02-21T09:56:45.641Z,79.50
2018-02-21T09:59:13.317Z,81.00
2018-02-21T10:01:40.960Z,71.80
2018-02-21T10:04:08.594Z,74.20
2018-02-21T10:06:36.272Z,73.90
2018-02-21T10:09:03.915Z,76.60
2018-02-21T10:11:31.530Z,71.70
2018-02-21T10:13:59.205Z,72.60
2018-02-21T10:16:28.491Z,69.40
2018-02-21T10:18:56.111Z,70.20
2018-02-21T10:21:23.792Z,71.10
2018-02-21T10:23:51.428Z,68.80
2018-02-21T10:26:19.055Z,69.40
2018-02-21T10:28:46.735Z,68.30
2018-02-21T10:31:14.364Z,70.70
2018-02-21T10:33:41.987Z,69.70
2018-02-21T10:36:09.664Z,71.70
2018-02-21T10:38:37.301Z,66.30
2018-02-21T10:41:06.823Z,67.90
2018-02-21T10:43:34.522Z,66.60
2018-02-21T10:46:02.144Z,60.20
2018-02-21T10:48:29.775Z,61.10
2018-02-21T10:50:57.448Z,58.20
2018-02-21T10:53:25.078Z,62.80
2018-02-21T10:55:52.706Z,57.50
2018-02-21T10:58:20.388Z,56.50
2018-02-21T11:00:53.570Z,57.10
2018-02-21T11:03:21.251Z,58.30
2018-02-21T11:05:48.882Z,54.00
2018-02-21T11:08:16.508Z,57.00
2018-02-21T11:10:44.229Z,56.50
2018-02-21T11:13:11.812Z,56.50
2018-02-21T11:18:18.585Z,58.30
2018-02-21T11:20:46.210Z,59.30
2018-02-21T11:23:13.846Z,56.80
2018-02-21T11:25:41.538Z,55.40
2018-02-21T11:28:09.154Z,53.90
2018-02-21T11:30:36.785Z,55.10
2018-02-21T11:33:04.478Z,55.00
2018-02-21T11:37:59.750Z,53.30
2018-02-21T11:40:27.418Z,54.80
2018-02-21T11:42:55.043Z,55.70
2018-02-21T11:45:22.653Z,55.20
2018-02-21T11:47:50.339Z,54.20
2018-02-21T11:50:17.977Z,53.20
2018-02-21T11:52:45.597Z,50.70
2018-02-21T11:55:13.533Z,52.60
2018-02-21T11:57:41.210Z,53.50
2018-02-21T12:00:09.046Z,54.20
2018-02-21T12:02:36.735Z,53.60
2018-02-21T12:05:04.368Z,52.80
2018-02-21T12:07:31.990Z,53.00
2018-02-21T12:09:59.666Z,53.00
2018-02-21T12:12:27.374Z,53.10
2018-02-21T12:14:54.991Z,52.80
2018-02-21T12:17:22.672Z,52.50
2018-02-21T12:22:17.913Z,52.20
2018-02-21T12:24:45.590Z,50.40
2018-02-21T12:27:13.216Z,51.40
2018-02-21T12:29:40.840Z,50.40
2018-02-21T12:34:49.047Z,50.70
2018-02-21T12:37:16.718Z,51.80
2018-02-21T12:39:44.333Z,49.70
2018-02-21T12:42:11.967Z,50.40
2018-02-21T12:47:07.296Z,51.30
2018-02-21T12:49:34.908Z,50.70
2018-02-21T12:52:02.593Z,50.10
2018-02-21T12:54:32.443Z,51.50
2018-02-21T12:57:00.075Z,51.70
2018-02-21T12:59:29.819Z,53.90
2018-02-21T13:01:57.448Z,50.90
2018-02-21T13:04:25.075Z,48.60
2018-02-21T13:06:52.801Z,48.30
2018-02-21T13:09:20.867Z,47.90
2018-02-21T13:11:48.537Z,47.80
2018-02-21T13:16:43.807Z,47.60
2018-02-21T13:19:11.440Z,47.60
2018-02-21T13:21:39.126Z,46.90
2018-02-21T13:24:06.770Z,47.70
2018-02-21T13:26:34.414Z,47.50
2018-02-21T13:29:02.085Z,47.10
2018-02-21T13:31:29.708Z,46.50
2018-02-21T13:33:57.344Z,46.40
2018-02-21T13:36:25.024Z,45.70
2018-02-21T13:38:52.656Z,47.30
2018-02-21T13:43:49.794Z,48.60
2018-02-21T13:46:17.416Z,48.80
2018-02-21T13:51:26.196Z,48.60
2018-02-21T13:53:53.816Z,50.10
2018-02-21T13:56:21.444Z,50.20
2018-02-21T14:01:16.751Z,51.30
2018-02-21T14:03:44.382Z,51.60
2018-02-21T14:06:12.062Z,50.70
2018-02-21T14:08:39.691Z,50.60
2018-02-21T14:11:07.323Z,50.50
2018-02-21T14:13:35.017Z,50.90
2018-02-21T14:16:02.636Z,51.60
2018-02-21T14:18:30.257Z,51.30
2018-02-21T14:20:57.938Z,52.50
2018-02-21T14:23:25.565Z,52.10
2018-02-21T14:25:53.193Z,53.20
2018-02-21T14:28:20.876Z,53.00
2018-02-21T14:30:48.500Z,54.30
2018-02-21T14:33:16.131Z,52.60
2018-02-21T14:35:43.811Z,52.00
2018-02-21T14:38:11.443Z,52.20
2018-02-21T14:40:39.071Z,52.60
2018-02-21T14:43:06.749Z,50.90
2018-02-21T14:45:34.379Z,51.00
2018-02-21T14:48:02.009Z,51.10
2018-02-21T14:52:57.335Z,51.10
2018-02-21T14:55:24.952Z,51.30
2018-02-21T14:57:52.643Z,52.00
2018-02-21T15:00:20.264Z,52.40
2018-02-21T15:02:47.891Z,52.30
2018-02-21T15:05:15.571Z,52.60
2018-02-21T15:07:43.226Z,53.50
2018-02-21T15:10:10.836Z,54.10
2018-02-21T15:15:19.675Z,53.80
2018-02-21T15:17:47.299Z,53.60
2018-02-21T15:20:14.916Z,54.00
2018-02-21T15:22:42.552Z,54.60
2018-02-21T15:25:10.233Z,54.30
2018-02-21T15:27:37.869Z,55.80
2018-02-21T15:30:05.487Z,56.20
2018-02-21T15:32:33.167Z,55.10
2018-02-21T15:35:00.784Z,55.20
2018-02-21T15:37:28.422Z,56.20
2018-02-21T15:39:56.094Z,56.50
2018-02-21T15:42:23.724Z,55.00
2018-02-21T15:44:51.344Z,55.60
2018-02-21T15:47:19.030Z,56.50
2018-02-21T15:49:46.667Z,57.10
2018-02-21T15:52:14.278Z,56.20
2018-02-21T15:57:09.632Z,58.20
2018-02-21T15:59:37.259Z,58.80
2018-02-21T16:04:32.634Z,58.70
2018-02-21T16:07:00.257Z,59.10
2018-02-21T16:09:27.946Z,59.60
2018-02-21T16:11:55.581Z,60.20
2018-02-21T16:14:23.202Z,60.80
2018-02-21T16:16:50.885Z,61.40
2018-02-21T16:19:18.505Z,61.70
2018-02-21T16:21:46.129Z,61.60
2018-02-21T16:24:13.807Z,61.80
2018-02-21T16:26:41.441Z,61.60
2018-02-21T16:29:09.062Z,61.50
2018-02-21T16:31:36.740Z,61.60
2018-02-21T16:34:04.376Z,61.40
2018-02-21T16:36:31.998Z,61.90
2018-02-21T16:44:08.477Z,61.10
2018-02-21T16:46:36.076Z,60.90
2018-02-21T16:49:04.029Z,61.70
2018-02-21T16:51:31.697Z,61.60
2018-02-21T16:54:05.048Z,61.60
2018-02-21T16:56:32.723Z,61.50
2018-02-21T16:59:00.354Z,62.30
2018-02-21T17:01:27.976Z,60.00
2018-02-21T17:03:55.659Z,60.50
2018-02-21T17:06:23.768Z,60.50
2018-02-21T17:08:51.395Z,60.40
2018-02-21T17:11:19.094Z,60.60
2018-02-21T17:13:46.718Z,61.40
2018-02-21T17:16:14.348Z,61.10
2018-02-21T17:18:42.035Z,58.90
2018-02-21T17:21:09.667Z,59.20
2018-02-21T17:23:37.293Z,59.20
2018-02-21T17:26:04.993Z,59.00
2018-02-21T17:28:32.642Z,59.90
2018-02-21T17:31:00.233Z,60.00
2018-02-21T17:33:27.915Z,61.50
2018-02-21T17:38:23.164Z,62.60
2018-02-21T17:40:56.413Z,62.90
2018-02-21T17:46:04.491Z,62.90
2018-02-21T17:48:32.111Z,63.50
2018-02-21T17:50:59.816Z,63.30
2018-02-21T17:53:27.502Z,62.70
2018-02-21T17:55:55.148Z,62.60
2018-02-21T17:58:22.805Z,62.00
2018-02-21T18:00:50.459Z,62.90
2018-02-21T18:03:18.142Z,63.60
2018-02-21T18:05:45.721Z,63.00
2018-02-21T18:08:13.393Z,62.30
2018-02-21T18:10:41.016Z,61.20
2018-02-21T18:13:08.645Z,62.50
2018-02-21T18:15:36.326Z,65.10
2018-02-21T18:18:03.948Z,64.30
2018-02-21T18:20:31.569Z,64.80
2018-02-21T18:22:59.254Z,64.70
2018-02-21T18:25:26.883Z,65.60
2018-02-21T18:27:54.513Z,67.00
2018-02-21T18:30:22.200Z,66.70
2018-02-21T18:32:49.832Z,66.90
2018-02-21T18:37:45.156Z,68.10
2018-02-21T18:40:13.635Z,68.90
2018-02-21T18:42:41.268Z,69.50
2018-02-21T18:45:08.948Z,69.40
2018-02-21T18:47:36.581Z,70.40
2018-02-21T18:50:04.221Z,71.00
2018-02-21T18:52:31.919Z,70.20
2018-02-21T18:54:59.542Z,71.40
2018-02-21T18:57:27.163Z,69.10
2018-02-21T18:59:54.842Z,69.40
2018-02-21T19:02:22.480Z,68.10
2018-02-21T19:07:29.278Z,68.50
2018-02-21T19:09:56.915Z,69.20
2018-02-21T19:12:24.568Z,69.30
2018-02-21T19:14:53.548Z,69.80
2018-02-21T19:17:19.930Z,69.70
2018-02-21T19:19:47.539Z,70.40
2018-02-21T19:22:15.260Z,70.30
2018-02-21T19:24:42.894Z,70.80
2018-02-21T19:27:10.509Z,70.90
2018-02-21T19:29:38.213Z,69.70
2018-02-21T19:32:05.879Z,70.10
2018-02-21T19:34:33.527Z,70.30
2018-02-21T19:37:01.263Z,69.10
2018-02-21T19:41:56.530Z,69.10
2018-02-21T19:44:24.248Z,69.00
2018-02-21T19:46:51.885Z,69.00
2018-02-21T19:49:19.511Z,69.90
2018-02-21T19:51:47.192Z,69.80
2018-02-21T19:54:14.816Z,69.80
2018-02-21T19:56:42.443Z,70.00
2018-02-21T20:01:37.760Z,70.00
2018-02-21T20:04:05.501Z,69.30
2018-02-21T20:06:33.261Z,68.80
2018-02-21T20:09:00.915Z,69.50
2018-02-21T20:11:28.538Z,68.80
2018-02-21T20:13:56.250Z,68.70
2018-02-21T20:16:23.907Z,69.10
2018-02-21T20:18:51.546Z,69.80
2018-02-21T20:21:19.243Z,68.70
2018-02-21T20:23:46.940Z,68.80
2018-02-21T20:26:14.570Z,69.80
2018-02-21T20:28:42.251Z,69.70
2018-02-21T20:33:50.702Z,72.40
2018-02-21T20:36:18.099Z,71.90
2018-02-21T20:38:46.222Z,72.20
2018-02-21T20:41:13.927Z,72.40
2018-02-21T20:43:42.035Z,74.60
2018-02-21T20:46:09.672Z,75.10
2018-02-21T20:51:08.977Z,76.10
2018-02-21T20:53:36.580Z,75.80
2018-02-21T20:56:04.589Z,76.70
2018-02-21T20:58:32.232Z,76.40
2018-02-21T21:00:59.863Z,76.60
2018-02-21T21:03:27.565Z,76.60
2018-02-21T21:05:55.609Z,76.50
2018-02-21T21:08:24.047Z,76.10
2018-02-21T21:10:59.174Z,75.80
2018-02-21T21:13:26.860Z,77.20
2018-02-21T21:15:54.502Z,77.40
2018-02-21T21:20:49.876Z,78.50
2018-02-21T21:23:17.790Z,79.30
2018-02-21T21:28:13.152Z,80.00
2018-02-21T21:30:40.798Z,80.20
2018-02-21T21:33:08.504Z,80.10
2018-02-21T21:35:36.170Z,79.70
2018-02-21T21:38:03.819Z,80.70
2018-02-21T21:40:31.523Z,81.70
2018-02-21T21:45:26.867Z,82.80
2018-02-21T21:47:54.558Z,83.20
2018-02-21T21:53:00.807Z,83.70
2018-02-21T21:55:28.440Z,82.80
2018-02-21T21:57:56.084Z,82.50
2018-02-21T22:00:23.772Z,83.20
2018-02-21T22:02:55.935Z,83.00
2018-02-21T22:05:23.631Z,83.70
2018-02-21T22:07:51.263Z,83.00
2018-02-21T22:10:18.899Z,82.80
2018-02-21T22:12:46.587Z,83.30
2018-02-21T22:15:14.235Z,83.20
2018-02-21T22:17:41.871Z,83.00
2018-02-21T22:20:09.556Z,83.50
2018-02-21T22:22:37.191Z,83.40
2018-02-21T22:25:04.816Z,83.90
2018-02-21T22:27:32.506Z,83.50
2018-02-21T22:30:00.150Z,83.30
2018-02-21T22:32:27.768Z,84.00
2018-02-21T22:34:55.474Z,82.50
2018-02-21T22:37:23.112Z,82.50
2018-02-21T22:39:50.750Z,83.00
2018-02-21T22:42:18.436Z,82.70
2018-02-21T22:44:46.068Z,83.10
2018-02-21T22:47:13.696Z,90.40
2018-02-21T22:49:41.384Z,83.80
2018-02-21T22:52:09.014Z,84.10
2018-02-21T22:54:36.633Z,81.30
2018-02-21T22:57:04.320Z,83.30
2018-02-21T22:59:37.295Z,79.70
2018-02-21T23:02:05.031Z,78.90
2018-02-21T23:04:32.682Z,79.90
2018-02-21T23:12:24.197Z,80.70
2018-02-21T23:14:54.352Z,81.70
2018-02-21T23:17:20.491Z,82.40
2018-02-21T23:19:50.380Z,83.30
2018-02-21T23:22:18.058Z,83.00
2018-02-21T23:24:45.689Z,83.20
2018-02-21T23:27:13.366Z,83.20
2018-02-21T23:29:40.987Z,84.00
2018-02-21T23:32:08.616Z,84.40
2018-02-21T23:34:36.244Z,83.60
2018-02-21T23:37:03.931Z,83.40
2018-02-21T23:39:31.560Z,84.50
2018-02-21T23:41:59.195Z,84.50
2018-02-21T23:44:26.867Z,84.30
2018-02-21T23:46:54.494Z,85.00
2018-02-21T23:49:22.126Z,84.70
2018-02-21T23:51:51.699Z,85.10
2018-02-21T23:54:19.323Z,84.70
2018-02-21T23:56:46.951Z,84.30
2018-02-21T23:59:14.637Z,85.40
